createdAt,value
2018-05-03T00:00:16.550Z,100414.41
2018-05-03T00:02:42.363Z,100413.58
2018-05-03T00:05:08.155Z,100407.38
2018-05-03T00:07:33.955Z,100416.09
2018-05-03T00:09:59.735Z,100408.99
2018-05-03T00:12:25.530Z,100412.36
2018-05-03T00:14:51.342Z,100409.21
2018-05-03T00:17:17.117Z,100404.98
2018-05-03T00:19:42.919Z,100392.70
2018-05-03T00:22:08.715Z,100392.67
2018-05-03T00:24:34.522Z,100389.09
2018-05-03T00:27:00.314Z,100384.58
2018-05-03T00:29:26.108Z,100388.99
2018-05-03T00:31:51.917Z,100389.99
2018-05-03T00:34:17.690Z,100389.52
2018-05-03T00:36:43.707Z,100396.87
2018-05-03T00:39:09.522Z,100394.52
2018-05-03T00:41:35.310Z,100392.53
2018-05-03T00:44:01.099Z,100397.97
2018-05-03T00:46:26.944Z,100401.44
2018-05-03T00:48:52.715Z,100399.58
2018-05-03T00:51:18.488Z,100398.44
2018-05-03T00:53:44.267Z,100401.09
2018-05-03T00:56:10.196Z,100395.30
2018-05-03T00:58:35.998Z,100389.13
2018-05-03T01:01:01.823Z,100390.55
2018-05-03T01:03:27.926Z,100390.79
2018-05-03T01:05:53.710Z,100388.81
2018-05-03T01:08:19.507Z,100390.60
2018-05-03T01:10:45.689Z,100385.77
2018-05-03T01:13:11.469Z,100387.83
2018-05-03T01:15:37.236Z,100386.80
2018-05-03T01:18:03.051Z,100393.52
2018-05-03T01:20:28.845Z,100389.42
2018-05-03T01:22:54.661Z,100389.72
2018-05-03T01:25:20.485Z,100394.02
2018-05-03T01:27:46.277Z,100390.91
2018-05-03T01:30:12.080Z,100386.84
2018-05-03T01:32:37.882Z,100393.75
2018-05-03T01:35:16.158Z,100395.62
2018-05-03T01:37:42.276Z,100388.94
2018-05-03T01:40:08.066Z,100387.52
2018-05-03T01:42:33.870Z,100392.54
2018-05-03T01:44:59.697Z,100385.00
2018-05-03T01:47:25.469Z,100378.65
2018-05-03T01:49:51.270Z,100385.06
2018-05-03T01:52:17.307Z,100389.67
2018-05-03T01:54:43.097Z,100395.02
2018-05-03T01:57:08.877Z,100398.55
2018-05-03T01:59:34.677Z,100403.72
2018-05-03T02:02:00.484Z,100402.36
2018-05-03T02:04:26.277Z,100405.48
2018-05-03T02:06:52.506Z,100408.27
2018-05-03T02:09:18.305Z,100409.44
2018-05-03T02:11:44.107Z,100408.03
2018-05-03T02:14:10.205Z,100410.85
2018-05-03T02:16:35.999Z,100408.23
2018-05-03T02:19:01.829Z,100409.64
2018-05-03T02:21:27.630Z,100408.94
2018-05-03T02:23:53.417Z,100412.73
2018-05-03T02:26:19.189Z,100409.61
2018-05-03T02:28:44.985Z,100412.61
2018-05-03T02:31:10.783Z,100414.49
2018-05-03T02:33:36.581Z,100409.48
2018-05-03T02:36:02.478Z,100412.14
2018-05-03T02:38:28.278Z,100404.75
2018-05-03T02:40:54.074Z,100403.81
2018-05-03T02:43:19.849Z,100412.77
2018-05-03T02:45:45.642Z,100420.64
2018-05-03T02:48:11.784Z,100414.26
2018-05-03T02:50:37.609Z,100416.69
2018-05-03T02:53:03.419Z,100420.59
2018-05-03T02:55:29.229Z,100423.84
2018-05-03T02:58:13.812Z,100426.35
2018-05-03T03:00:58.326Z,100412.77
2018-05-03T03:03:42.813Z,100415.08
2018-05-03T03:06:27.250Z,100420.28
2018-05-03T03:09:12.355Z,100432.84
2018-05-03T03:11:56.874Z,100435.86
2018-05-03T03:14:41.431Z,100433.59
2018-05-03T03:17:25.872Z,100439.50
2018-05-03T03:20:10.373Z,100443.69
2018-05-03T03:22:54.786Z,100454.33
2018-05-03T03:25:37.953Z,100455.73
2018-05-03T03:28:22.444Z,100451.82
2018-05-03T03:31:06.909Z,100456.68
2018-05-03T03:33:45.210Z,100461.41
2018-05-03T03:39:21.518Z,100471.27
2018-05-03T03:41:47.340Z,100465.92
2018-05-03T03:47:08.131Z,100473.28
2018-05-03T03:49:33.930Z,100481.22
2018-05-03T03:51:59.756Z,100481.26
2018-05-03T03:54:25.529Z,100484.74
2018-05-03T03:56:51.310Z,100485.88
2018-05-03T03:59:17.090Z,100482.72
2018-05-03T04:01:42.930Z,100492.20
2018-05-03T04:04:08.959Z,100494.54
2018-05-03T04:06:34.764Z,100490.31
2018-05-03T04:09:00.537Z,100494.74
2018-05-03T04:11:26.630Z,100497.16
2018-05-03T04:13:52.434Z,100488.64
2018-05-03T04:16:18.246Z,100495.39
2018-05-03T04:18:56.496Z,100498.92
2018-05-03T04:21:34.608Z,100506.34
2018-05-03T04:24:12.833Z,100507.34
2018-05-03T04:26:38.663Z,100511.07
2018-05-03T04:29:04.427Z,100510.77
2018-05-03T04:31:30.543Z,100509.71
2018-05-03T04:33:56.330Z,100514.45
2018-05-03T04:36:22.115Z,100521.36
2018-05-03T04:38:47.924Z,100524.57
2018-05-03T04:41:13.701Z,100530.99
2018-05-03T04:43:40.032Z,100542.63
2018-05-03T04:46:05.829Z,100542.24
2018-05-03T04:48:31.623Z,100543.14
2018-05-03T04:50:57.439Z,100549.65
2018-05-03T04:53:23.221Z,100553.30
2018-05-03T04:55:55.949Z,100555.64
2018-05-03T04:58:22.113Z,100563.13
2018-05-03T05:00:47.908Z,100575.03
2018-05-03T05:03:13.698Z,100566.04
2018-05-03T05:05:39.795Z,100574.98
2018-05-03T05:08:05.594Z,100581.80
2018-05-03T05:10:31.395Z,100570.86
2018-05-03T05:12:57.194Z,100580.54
2018-05-03T05:15:22.972Z,100584.45
2018-05-03T05:17:48.853Z,100589.59
2018-05-03T05:20:14.581Z,100594.09
2018-05-03T05:22:40.697Z,100599.39
2018-05-03T05:25:06.484Z,100609.34
2018-05-03T05:27:32.267Z,100610.45
2018-05-03T05:29:58.058Z,100611.70
2018-05-03T05:32:23.849Z,100621.97
2018-05-03T05:34:49.677Z,100618.32
2018-05-03T05:37:15.457Z,100621.11
2018-05-03T05:39:41.246Z,100622.40
2018-05-03T05:42:07.069Z,100629.81
2018-05-03T05:44:32.885Z,100632.94
2018-05-03T05:46:58.656Z,100637.64
2018-05-03T05:49:24.500Z,100634.13
2018-05-03T05:51:50.297Z,100647.09
2018-05-03T05:54:16.087Z,100639.88
2018-05-03T05:56:41.921Z,100647.02
2018-05-03T05:59:07.724Z,100655.48
2018-05-03T06:01:33.521Z,100640.43
2018-05-03T06:03:59.747Z,100645.09
2018-05-03T06:06:25.752Z,100650.73
2018-05-03T06:08:51.525Z,100651.48
2018-05-03T06:11:17.329Z,100654.19
2018-05-03T06:13:43.117Z,100659.91
2018-05-03T06:16:08.908Z,100669.87
2018-05-03T06:18:35.149Z,100667.79
2018-05-03T06:21:00.952Z,100668.61
2018-05-03T06:23:26.742Z,100681.59
2018-05-03T06:25:52.546Z,100687.59
2018-05-03T06:28:18.334Z,100687.58
2018-05-03T06:30:44.121Z,100701.19
2018-05-03T06:33:10.367Z,100699.66
2018-05-03T06:35:36.166Z,100699.34
2018-05-03T06:38:01.971Z,100709.16
2018-05-03T06:40:28.131Z,100708.28
2018-05-03T06:42:53.930Z,100715.37
2018-05-03T06:45:19.808Z,100723.77
2018-05-03T06:47:45.567Z,100727.77
2018-05-03T06:50:11.363Z,100728.34
2018-05-03T06:52:37.177Z,100739.88
2018-05-03T06:55:03.011Z,100734.70
2018-05-03T06:57:28.794Z,100732.22
2018-05-03T06:59:54.589Z,100732.83
2018-05-03T07:02:20.751Z,100736.91
2018-05-03T07:04:46.558Z,100745.37
2018-05-03T07:07:12.342Z,100749.06
2018-05-03T07:09:38.146Z,100758.04
2018-05-03T07:12:03.970Z,100755.19
2018-05-03T07:14:29.749Z,100761.90
2018-05-03T07:16:55.589Z,100767.94
2018-05-03T07:19:21.362Z,100771.55
2018-05-03T07:21:47.166Z,100773.23
2018-05-03T07:24:12.969Z,100782.76
2018-05-03T07:26:38.762Z,100787.67
2018-05-03T07:29:04.528Z,100791.98
2018-05-03T07:31:30.348Z,100802.78
2018-05-03T07:33:56.180Z,100804.16
2018-05-03T07:36:22.007Z,100812.16
2018-05-03T07:38:47.866Z,100819.26
2018-05-03T07:41:13.619Z,100824.32
2018-05-03T07:43:39.461Z,100822.79
2018-05-03T07:46:05.272Z,100830.21
2018-05-03T07:48:31.342Z,100835.31
2018-05-03T07:50:57.458Z,100838.42
2018-05-03T07:53:23.575Z,100852.03
2018-05-03T07:55:49.387Z,100854.63
2018-05-03T07:58:15.388Z,100860.86
2018-05-03T08:00:41.222Z,100865.76
2018-05-03T08:03:07.009Z,100864.30
2018-05-03T08:05:33.215Z,100867.91
2018-05-03T08:07:59.058Z,100873.12
2018-05-03T08:10:24.853Z,100873.00
2018-05-03T08:12:50.656Z,100879.76
2018-05-03T08:15:16.737Z,100880.36
2018-05-03T08:17:43.497Z,100889.79
2018-05-03T08:20:09.295Z,100895.06
2018-05-03T08:22:35.094Z,100909.91
2018-05-03T08:25:00.915Z,100911.17
2018-05-03T08:27:26.732Z,100915.68
2018-05-03T08:29:52.520Z,100918.50
2018-05-03T08:32:18.338Z,100927.26
2018-05-03T08:34:44.133Z,100927.03
2018-05-03T08:37:09.899Z,100924.10
2018-05-03T08:39:35.708Z,100926.29
2018-05-03T08:42:01.505Z,100929.84
2018-05-03T08:44:34.191Z,100936.89
2018-05-03T08:46:59.996Z,100935.50
2018-05-03T08:49:25.778Z,100936.02
2018-05-03T08:51:51.611Z,100944.83
2018-05-03T08:54:17.385Z,100943.91
2018-05-03T08:56:43.167Z,100945.22
2018-05-03T08:59:08.979Z,100950.08
2018-05-03T09:01:34.794Z,100955.73
2018-05-03T09:04:07.546Z,100953.45
2018-05-03T09:06:33.365Z,100960.80
2018-05-03T09:08:59.215Z,100965.45
2018-05-03T09:11:25.008Z,100970.27
2018-05-03T09:13:50.797Z,100971.84
2018-05-03T09:16:16.615Z,100972.00
2018-05-03T09:18:42.762Z,100983.85
2018-05-03T09:21:08.886Z,100984.89
2018-05-03T09:23:34.946Z,100987.44
2018-05-03T09:26:00.738Z,100983.97
2018-05-03T09:28:26.534Z,100984.38
2018-05-03T09:30:52.451Z,100981.23
2018-05-03T09:33:18.267Z,100986.73
2018-05-03T09:35:44.053Z,100993.69
2018-05-03T09:38:10.169Z,101000.09
2018-05-03T09:40:35.995Z,101003.55
2018-05-03T09:43:01.776Z,101011.45
2018-05-03T09:45:27.582Z,101002.61
2018-05-03T09:47:53.377Z,101007.58
2018-05-03T09:50:19.209Z,101006.60
2018-05-03T09:52:45.039Z,101009.85
2018-05-03T09:55:10.825Z,101014.08
2018-05-03T09:57:36.676Z,101023.81
2018-05-03T10:00:02.461Z,101025.67
2018-05-03T10:02:28.275Z,101024.84
2018-05-03T10:04:54.115Z,101028.28
2018-05-03T10:07:19.873Z,101031.38
2018-05-03T10:09:45.677Z,101034.86
2018-05-03T10:12:11.453Z,101045.98
2018-05-03T10:14:37.267Z,101036.10
2018-05-03T10:17:03.114Z,101035.25
2018-05-03T10:19:28.889Z,101024.95
2018-05-03T10:21:54.691Z,101047.37
2018-05-03T10:24:20.493Z,101047.95
2018-05-03T10:26:46.286Z,101057.69
2018-05-03T10:29:12.077Z,101057.34
2018-05-03T10:31:37.877Z,101060.41
2018-05-03T10:34:03.686Z,101053.05
2018-05-03T10:36:29.490Z,101052.46
2018-05-03T10:38:55.721Z,101058.52
2018-05-03T10:41:21.511Z,101059.81
2018-05-03T10:43:47.301Z,101062.48
2018-05-03T10:46:13.113Z,101073.63
2018-05-03T10:48:39.175Z,101072.63
2018-05-03T10:51:05.947Z,101073.80
2018-05-03T10:53:31.733Z,101072.23
2018-05-03T10:55:57.693Z,101065.87
2018-05-03T10:58:24.017Z,101079.26
2018-05-03T11:00:50.634Z,101083.34
2018-05-03T11:03:16.420Z,101082.24
2018-05-03T11:05:43.169Z,101091.90
2018-05-03T11:08:08.970Z,101095.09
2018-05-03T11:10:34.793Z,101094.41
2018-05-03T11:13:00.585Z,101095.48
2018-05-03T11:15:26.362Z,101092.31
2018-05-03T11:17:52.159Z,101092.42
2018-05-03T11:20:17.941Z,101095.61
2018-05-03T11:22:43.876Z,101100.45
2018-05-03T11:25:09.701Z,101094.53
2018-05-03T11:27:35.785Z,101108.08
2018-05-03T11:30:01.595Z,101099.44
2018-05-03T11:32:27.408Z,101113.31
2018-05-03T11:34:53.194Z,101111.39
2018-05-03T11:37:19.015Z,101115.67
2018-05-03T11:39:49.178Z,101119.81
2018-05-03T11:42:14.981Z,101107.66
2018-05-03T11:44:40.753Z,101125.08
2018-05-03T11:47:06.573Z,101120.89
2018-05-03T11:49:39.308Z,101128.58
2018-05-03T11:52:05.113Z,101137.86
2018-05-03T11:54:30.974Z,101133.90
2018-05-03T11:56:56.765Z,101145.80
2018-05-03T11:59:22.605Z,101137.48
2018-05-03T12:01:48.367Z,101136.52
2018-05-03T12:04:14.254Z,101140.95
2018-05-03T12:06:40.091Z,101148.41
2018-05-03T12:09:05.866Z,101150.62
2018-05-03T12:11:31.653Z,101143.84
2018-05-03T12:13:57.681Z,101134.23
2018-05-03T12:16:23.484Z,101136.52
2018-05-03T12:18:49.270Z,101143.06
2018-05-03T12:21:15.077Z,101147.23
2018-05-03T12:23:40.849Z,101139.83
2018-05-03T12:26:06.681Z,101141.23
2018-05-03T12:28:32.457Z,101142.09
2018-05-03T12:30:58.269Z,101147.15
2018-05-03T12:33:24.072Z,101157.41
2018-05-03T12:35:49.858Z,101140.25
2018-05-03T12:38:15.674Z,101152.63
2018-05-03T12:40:41.477Z,101154.39
2018-05-03T12:43:07.253Z,101152.75
2018-05-03T12:45:35.202Z,101153.09
2018-05-03T12:48:01.003Z,101158.20
2018-05-03T12:50:26.825Z,101155.37
2018-05-03T12:52:59.794Z,101166.04
2018-05-03T12:55:25.913Z,101158.84
2018-05-03T12:57:51.698Z,101172.53
2018-05-03T13:00:17.501Z,101176.39
2018-05-03T13:02:43.843Z,101174.56
2018-05-03T13:05:09.653Z,101179.81
2018-05-03T13:07:35.454Z,101183.52
2018-05-03T13:10:01.277Z,101173.39
2018-05-03T13:12:27.069Z,101178.16
2018-05-03T13:14:52.900Z,101169.64
2018-05-03T13:17:18.702Z,101172.20
2018-05-03T13:19:44.488Z,101184.86
2018-05-03T13:22:10.277Z,101183.33
2018-05-03T13:24:36.079Z,101183.67
2018-05-03T13:27:02.278Z,101175.03
2018-05-03T13:29:28.063Z,101176.09
2018-05-03T13:31:53.876Z,101169.81
2018-05-03T13:34:19.685Z,101178.08
2018-05-03T13:36:45.470Z,101178.94
2018-05-03T13:39:11.266Z,101176.54
2018-05-03T13:41:37.397Z,101174.52
2018-05-03T13:44:03.220Z,101171.61
2018-05-03T13:46:29.002Z,101168.78
2018-05-03T13:48:54.801Z,101180.06
2018-05-03T13:51:20.598Z,101182.13
2018-05-03T13:53:46.384Z,101182.52
2018-05-03T13:56:12.210Z,101183.95
2018-05-03T13:58:38.025Z,101186.65
2018-05-03T14:01:03.856Z,101193.39
2018-05-03T14:03:29.706Z,101196.97
2018-05-03T14:05:55.502Z,101191.55
2018-05-03T14:08:21.295Z,101193.55
2018-05-03T14:10:47.108Z,101192.80
2018-05-03T14:13:12.900Z,101195.59
2018-05-03T14:15:38.674Z,101188.80
2018-05-03T14:18:04.457Z,101209.41
2018-05-03T14:20:30.242Z,101204.41
2018-05-03T14:22:56.044Z,101195.05
2018-05-03T14:25:21.856Z,101198.98
2018-05-03T14:27:47.647Z,101200.95
2018-05-03T14:30:13.458Z,101184.68
2018-05-03T14:32:39.251Z,101200.92
2018-05-03T14:35:05.045Z,101200.17
2018-05-03T14:37:30.843Z,101209.77
2018-05-03T14:39:56.626Z,101199.09
2018-05-03T14:42:22.402Z,101202.70
2018-05-03T14:44:48.201Z,101205.24
2018-05-03T14:47:14.021Z,101201.50
2018-05-03T14:49:39.778Z,101204.59
2018-05-03T14:52:05.608Z,101211.20
2018-05-03T14:54:31.426Z,101213.21
2018-05-03T14:56:57.213Z,101213.02
2018-05-03T14:59:22.998Z,101224.34
2018-05-03T15:01:48.796Z,101222.95
2018-05-03T15:04:14.600Z,101215.16
2018-05-03T15:06:40.457Z,101214.92
2018-05-03T15:09:06.232Z,101224.08
2018-05-03T15:11:32.019Z,101226.74
2018-05-03T15:13:57.850Z,101221.47
2018-05-03T15:16:23.672Z,101226.59
2018-05-03T15:18:49.434Z,101228.28
2018-05-03T15:21:15.228Z,101229.19
2018-05-03T15:23:41.055Z,101234.83
2018-05-03T15:26:06.842Z,101228.69
2018-05-03T15:28:32.635Z,101233.30
2018-05-03T15:30:58.454Z,101228.26
2018-05-03T15:33:24.226Z,101223.62
2018-05-03T15:35:50.020Z,101229.34
2018-05-03T15:38:15.830Z,101233.41
2018-05-03T15:40:41.606Z,101232.32
2018-05-03T15:43:07.411Z,101237.00
2018-05-03T15:45:33.213Z,101241.11
2018-05-03T15:47:59.005Z,101243.08
2018-05-03T15:50:24.793Z,101243.73
2018-05-03T15:52:50.576Z,101247.87
2018-05-03T15:55:16.564Z,101249.83
2018-05-03T15:57:42.366Z,101260.90
2018-05-03T16:00:08.167Z,101247.92
2018-05-03T16:02:33.976Z,101253.58
2018-05-03T16:04:59.761Z,101255.86
2018-05-03T16:07:25.934Z,101259.84
2018-05-03T16:09:51.713Z,101264.37
2018-05-03T16:12:17.624Z,101274.59
2018-05-03T16:14:43.470Z,101262.61
2018-05-03T16:17:09.255Z,101263.41
2018-05-03T16:19:35.089Z,101266.84
2018-05-03T16:22:00.868Z,101267.75
2018-05-03T16:24:26.683Z,101268.13
2018-05-03T16:26:52.506Z,101273.97
2018-05-03T16:29:18.315Z,101262.89
2018-05-03T16:31:44.138Z,101282.13
2018-05-03T16:34:09.954Z,101268.48
2018-05-03T16:36:35.739Z,101280.84
2018-05-03T16:39:01.532Z,101292.45
2018-05-03T16:41:27.346Z,101285.24
2018-05-03T16:43:53.149Z,101284.09
2018-05-03T16:46:18.946Z,101284.02
2018-05-03T16:48:44.764Z,101280.36
2018-05-03T16:51:10.584Z,101284.14
2018-05-03T16:53:36.364Z,101283.64
2018-05-03T16:56:02.749Z,101285.20
2018-05-03T16:58:28.554Z,101293.80
2018-05-03T17:00:54.341Z,101295.26
2018-05-03T17:03:20.165Z,101294.33
2018-05-03T17:05:45.958Z,101289.97
2018-05-03T17:08:11.847Z,101294.91
2018-05-03T17:10:37.641Z,101292.91
2018-05-03T17:13:03.483Z,101296.13
2018-05-03T17:15:29.281Z,101301.44
2018-05-03T17:17:55.082Z,101300.38
2018-05-03T17:20:21.237Z,101309.91
2018-05-03T17:22:47.021Z,101310.05
2018-05-03T17:25:12.824Z,101315.59
2018-05-03T17:27:38.626Z,101313.69
2018-05-03T17:30:04.418Z,101320.84
2018-05-03T17:32:30.224Z,101315.45
2018-05-03T17:34:56.023Z,101323.73
2018-05-03T17:37:21.805Z,101327.59
2018-05-03T17:39:47.629Z,101327.28
2018-05-03T17:42:13.421Z,101331.47
2018-05-03T17:44:39.226Z,101344.52
2018-05-03T17:47:05.001Z,101344.12
2018-05-03T17:49:30.792Z,101349.30
2018-05-03T17:51:56.620Z,101356.53
2018-05-03T17:54:22.406Z,101359.36
2018-05-03T17:56:48.208Z,101367.56
2018-05-03T17:59:13.988Z,101365.04
2018-05-03T18:01:39.840Z,101368.58
2018-05-03T18:04:05.628Z,101377.35
2018-05-03T18:06:31.407Z,101385.03
2018-05-03T18:08:57.196Z,101384.27
2018-05-03T18:11:22.976Z,101386.95
2018-05-03T18:13:48.793Z,101387.30
2018-05-03T18:16:14.746Z,101393.88
2018-05-03T18:18:40.474Z,101394.66
2018-05-03T18:21:06.427Z,101394.64
2018-05-03T18:23:32.213Z,101397.56
2018-05-03T18:25:58.009Z,101404.97
2018-05-03T18:28:24.149Z,101405.22
2018-05-03T18:30:49.977Z,101405.91
2018-05-03T18:33:15.753Z,101406.78
2018-05-03T18:35:41.550Z,101417.98
2018-05-03T18:38:07.416Z,101415.48
2018-05-03T18:40:33.547Z,101419.13
2018-05-03T18:42:59.324Z,101427.81
2018-05-03T18:45:25.102Z,101433.61
2018-05-03T18:47:51.106Z,101436.20
2018-05-03T18:50:16.927Z,101439.22
2018-05-03T18:52:42.713Z,101445.47
2018-05-03T18:55:08.499Z,101454.72
2018-05-03T18:57:34.293Z,101458.66
2018-05-03T19:00:00.155Z,101458.78
2018-05-03T19:02:25.930Z,101452.95
2018-05-03T19:04:51.731Z,101455.27
2018-05-03T19:07:17.965Z,101455.75
2018-05-03T19:09:43.787Z,101468.11
2018-05-03T19:12:09.594Z,101463.05
2018-05-03T19:14:35.474Z,101465.84
2018-05-03T19:17:01.208Z,101468.36
2018-05-03T19:19:27.002Z,101480.59
2018-05-03T19:21:52.822Z,101483.09
2018-05-03T19:24:18.619Z,101487.55
2018-05-03T19:26:44.434Z,101485.97
2018-05-03T19:29:10.531Z,101486.07
2018-05-03T19:31:36.318Z,101491.36
2018-05-03T19:34:02.092Z,101489.45
2018-05-03T19:36:27.904Z,101492.70
2018-05-03T19:38:53.696Z,101496.00
2018-05-03T19:41:19.482Z,101497.50
2018-05-03T19:43:45.296Z,101498.75
2018-05-03T19:46:11.077Z,101498.21
2018-05-03T19:48:36.857Z,101500.51
2018-05-03T19:51:02.711Z,101505.34
2018-05-03T19:53:28.498Z,101508.77
2018-05-03T19:55:54.281Z,101508.34
2018-05-03T19:58:20.091Z,101511.03
2018-05-03T20:00:46.272Z,101512.91
2018-05-03T20:03:12.079Z,101518.14
2018-05-03T20:05:37.866Z,101518.59
2018-05-03T20:08:04.173Z,101508.98
2018-05-03T20:10:29.962Z,101505.09
2018-05-03T20:12:55.738Z,101516.04
2018-05-03T20:15:21.561Z,101518.70
2018-05-03T20:17:47.650Z,101525.25
2018-05-03T20:20:13.446Z,101524.77
2018-05-03T20:22:39.240Z,101532.13
2018-05-03T20:25:05.371Z,101530.70
2018-05-03T20:27:31.173Z,101532.81
2018-05-03T20:30:03.951Z,101533.12
2018-05-03T20:32:29.749Z,101536.98
2018-05-03T20:34:55.538Z,101528.04
2018-05-03T20:37:21.352Z,101526.45
2018-05-03T20:39:47.223Z,101530.28
2018-05-03T20:42:12.921Z,101525.64
2018-05-03T20:44:38.743Z,101527.14
2018-05-03T20:47:04.546Z,101527.02
2018-05-03T20:49:30.329Z,101530.65
2018-05-03T20:51:56.211Z,101537.53
2018-05-03T20:54:21.921Z,101535.58
2018-05-03T20:56:47.702Z,101534.84
2018-05-03T20:59:13.491Z,101538.84
2018-05-03T21:01:39.285Z,101536.80
2018-05-03T21:04:05.080Z,101540.02
2018-05-03T21:06:30.878Z,101545.27
2018-05-03T21:08:56.817Z,101541.26
2018-05-03T21:11:22.627Z,101542.02
2018-05-03T21:13:48.422Z,101544.56
2018-05-03T21:16:14.241Z,101546.48
2018-05-03T21:18:40.013Z,101551.23
2018-05-03T21:21:05.831Z,101551.09
2018-05-03T21:23:31.606Z,101552.30
2018-05-03T21:25:57.406Z,101557.23
2018-05-03T21:28:23.205Z,101552.34
2018-05-03T21:30:49.014Z,101560.75
2018-05-03T21:33:14.865Z,101557.56
2018-05-03T21:35:40.662Z,101550.45
2018-05-03T21:38:06.441Z,101549.30
2018-05-03T21:40:32.252Z,101557.19
2018-05-03T21:42:58.032Z,101558.36
2018-05-03T21:45:23.817Z,101554.53
2018-05-03T21:47:50.046Z,101554.70
2018-05-03T21:50:15.830Z,101560.38
2018-05-03T21:52:41.612Z,101561.06
2018-05-03T21:55:07.398Z,101568.27
2018-05-03T21:57:33.185Z,101570.92
2018-05-03T21:59:58.978Z,101568.78
2018-05-03T22:02:24.794Z,101565.92
2018-05-03T22:04:50.601Z,101569.20
2018-05-03T22:07:16.441Z,101567.23
2018-05-03T22:09:42.223Z,101568.02
2018-05-03T22:12:08.342Z,101571.25
2018-05-03T22:14:34.117Z,101570.47
2018-05-03T22:16:59.907Z,101569.78
2018-05-03T22:19:25.896Z,101574.85
2018-05-03T22:21:51.725Z,101578.62
2018-05-03T22:24:17.563Z,101584.25
2018-05-03T22:26:43.664Z,101585.25
2018-05-03T22:29:09.458Z,101590.04
2018-05-03T22:31:35.257Z,101586.45
2018-05-03T22:34:01.050Z,101588.24
2018-05-03T22:36:26.838Z,101589.02
2018-05-03T22:38:52.945Z,101588.14
2018-05-03T22:41:18.748Z,101590.05
2018-05-03T22:43:44.540Z,101582.61
2018-05-03T22:46:10.332Z,101578.77
2018-05-03T22:48:36.136Z,101577.42
2018-05-03T22:51:01.945Z,101572.51
2018-05-03T22:53:27.737Z,101573.42
2018-05-03T22:55:53.533Z,101566.92
2018-05-03T22:58:19.334Z,101572.45
2018-05-03T23:00:45.149Z,101578.56
2018-05-03T23:03:11.345Z,101571.02
2018-05-03T23:05:37.131Z,101582.20
2018-05-03T23:08:02.909Z,101580.05
2018-05-03T23:10:28.691Z,101587.41
2018-05-03T23:12:54.493Z,101580.92
2018-05-03T23:15:20.295Z,101586.13
2018-05-03T23:17:46.100Z,101589.55
2018-05-03T23:20:11.952Z,101592.20
2018-05-03T23:22:37.729Z,101595.37
2018-05-03T23:25:03.515Z,101591.90
2018-05-03T23:27:29.319Z,101587.97
2018-05-03T23:29:55.101Z,101589.33
2018-05-03T23:32:20.890Z,101593.11
2018-05-03T23:34:46.694Z,101593.57
2018-05-03T23:37:12.472Z,101590.05
2018-05-03T23:39:38.284Z,101589.93
2018-05-03T23:42:04.077Z,101595.53
2018-05-03T23:44:29.856Z,101593.41
2018-05-03T23:46:55.662Z,101602.05
2018-05-03T23:51:47.126Z,101612.09
2018-05-03T23:54:13.120Z,101631.09
2018-05-03T23:56:38.910Z,101627.29
2018-05-03T23:59:04.690Z,101623.61
